OSOK1: Oswego hwy 160

                                SHEF ID:       OSOK1     Oswego hwy 160
STATION TYPE:

PRECIP STAGE RIV-FLOW VOLTAGE BAT-LOAD
in ft cfs volt volt
Ccp-Rev Ccp-Rev Ccp-Rev Ccp-Rev Ccp-Rev
(America/Chicago)
02/22 00:00 0.00 13.81 4691 12.73 12.44
02/22 01:00 0.00 13.81 4691 12.70 12.42
02/22 02:00 0.00 13.81 4691 12.68 12.40
02/22 03:00 0.00 13.80 4678 12.65 12.37
02/22 04:00 0.00 13.80 4678 12.62 12.34
02/22 05:00 0.00 13.80 4678 12.59 12.30
02/22 06:00 0.00 13.79 4666 12.56 12.27
02/22 07:00 0.00 13.80 4678 12.55 12.25
02/22 08:00 0.00 13.78 4653 12.80 12.42
02/22 09:00 0.00 13.77 4641 14.58 13.74
02/22 10:00 0.00 13.77 4641 14.46 13.55
02/22 11:00 0.00 13.77 4641 14.50 13.43
02/22 12:00 0.00 13.76 4628 14.12 13.32
02/22 13:00 0.00 13.76 4628 14.06 13.27
02/22 14:00 0.00 13.75 4616 13.94 13.28
02/22 15:00 0.00 13.75 4616 13.85 13.23
02/22 16:00 0.00 13.75 4616 13.94 13.17
02/22 17:00 0.00 13.74 4603 14.07 13.19
02/22 18:00 0.00 13.74 4603 13.31 13.09
02/22 19:00 0.00 13.74 4603 13.07 12.84
02/22 20:00 0.00 13.75 4616 12.91 12.67
02/22 21:00 0.00 13.74 4603 12.82 12.57
02/22 22:00 0.00 13.74 4603 12.78 12.50
02/22 23:00 0.00 13.74 4603 12.75 12.47
Data processed at Mon 23Feb2026 05:50 GMT

NOTICE: If you are parsing this page

Please convert to using our Data API. Starting early 2026 we will be migrating to: https://water.usace.army.mil with modern pages rendered in JavaScript. When this migration completes you will no longer be able to scrape this page! CWMSDataAPI (CDA)

Timeseries IDs (TSIDs)

TSIDs used from left to right in the data table
OSWN.Precip-Inc.Total.1Hour.1Hour.Ccp-Rev
OSWN.Stage.Inst.1Hour.0.Ccp-Rev
OSWN.Flow.Inst.1Hour.0.Ccp-Rev
OSWN.Volt-Battery.Inst.1Hour.0.Ccp-Rev
OSWN.Volt-Battery Load.Inst.1Hour.0.Ccp-Rev

                            

All information presented herein is the property of the government of the United States of America and may be revised or deleted at any time without prior notice. Dissemination of this information without the expressed written consent of the Public Affairs Office, Tulsa District U.S. Army Corps of Engineers is strictly prohibited. These data are gathered electronically and, as presented, have NOT undergone any form of quality control. These data are NOT guaranteed to be valid or correct.